createdAt,value
2017-10-22T00:02:25.287Z,11.80
2017-10-22T00:04:52.600Z,12.40
2017-10-22T00:07:19.904Z,13.10
2017-10-22T00:09:47.236Z,14.90
2017-10-22T00:12:14.537Z,14.10
2017-10-22T00:14:41.862Z,12.20
2017-10-22T00:17:09.180Z,12.87
2017-10-22T00:19:36.505Z,13.00
2017-10-22T00:22:03.808Z,13.90
2017-10-22T00:24:31.133Z,14.00
2017-10-22T00:26:58.457Z,14.13
2017-10-22T00:29:25.774Z,14.80
2017-10-22T00:31:53.278Z,13.87
2017-10-22T00:34:20.605Z,14.80
2017-10-22T00:36:47.923Z,14.93
2017-10-22T00:39:15.244Z,15.87
2017-10-22T00:41:42.569Z,15.47
2017-10-22T00:44:09.899Z,15.47
2017-10-22T00:46:37.229Z,14.90
2017-10-22T00:49:04.563Z,15.80
2017-10-22T00:51:31.885Z,15.90
2017-10-22T00:53:59.200Z,16.93
2017-10-22T00:56:26.534Z,15.90
2017-10-22T00:58:53.871Z,16.00
2017-10-22T01:01:21.161Z,16.50
2017-10-22T01:03:48.668Z,16.53
2017-10-22T01:06:15.956Z,17.37
2017-10-22T01:08:43.290Z,17.13
2017-10-22T01:11:10.598Z,17.37
2017-10-22T01:13:37.921Z,16.50
2017-10-22T01:16:05.216Z,16.93
2017-10-22T01:18:32.526Z,16.43
2017-10-22T01:20:59.985Z,17.90
2017-10-22T01:23:27.308Z,17.00
2017-10-22T01:25:54.610Z,17.73
2017-10-22T01:28:22.324Z,18.13
2017-10-22T01:30:49.852Z,17.40
2017-10-22T01:33:17.200Z,18.50
2017-10-22T01:35:44.569Z,18.47
2017-10-22T01:38:11.900Z,18.77
2017-10-22T01:40:39.248Z,19.40
2017-10-22T01:43:06.540Z,19.60
2017-10-22T01:45:33.865Z,19.90
2017-10-22T01:48:01.164Z,19.97
2017-10-22T01:50:28.480Z,18.77
2017-10-22T01:52:55.811Z,20.60
2017-10-22T01:55:23.299Z,20.40
2017-10-22T01:57:50.609Z,19.97
2017-10-22T02:00:17.969Z,20.50
2017-10-22T02:02:45.299Z,20.10
2017-10-22T02:05:12.661Z,20.40
2017-10-22T02:07:39.992Z,22.00
2017-10-22T02:10:07.307Z,20.00
2017-10-22T02:12:34.620Z,20.67
2017-10-22T02:15:01.956Z,20.67
2017-10-22T02:17:29.293Z,20.60
2017-10-22T02:19:56.592Z,20.10
2017-10-22T02:22:23.914Z,20.70
2017-10-22T02:24:51.221Z,20.53
2017-10-22T02:27:18.537Z,20.23
2017-10-22T02:29:46.306Z,20.57
2017-10-22T02:32:13.658Z,20.43
2017-10-22T02:34:40.957Z,20.33
2017-10-22T02:37:08.278Z,22.33
2017-10-22T02:39:35.576Z,20.80
2017-10-22T02:42:02.924Z,20.63
2017-10-22T02:44:30.216Z,21.50
2017-10-22T02:46:57.524Z,20.70
2017-10-22T02:49:24.845Z,23.17
2017-10-22T02:51:52.171Z,21.77
2017-10-22T02:54:19.498Z,21.30
2017-10-22T02:56:46.808Z,21.80
2017-10-22T02:59:14.124Z,21.83
2017-10-22T03:01:41.439Z,20.80
2017-10-22T03:04:08.756Z,21.10
2017-10-22T03:06:36.084Z,22.07
2017-10-22T03:09:05.380Z,22.13
2017-10-22T03:11:32.678Z,21.10
2017-10-22T03:14:00.001Z,20.43
2017-10-22T03:16:27.306Z,19.87
2017-10-22T03:18:54.619Z,20.13
2017-10-22T03:21:22.233Z,18.53
2017-10-22T03:23:49.552Z,17.83
2017-10-22T03:26:16.886Z,17.40
2017-10-22T03:28:44.203Z,17.00
2017-10-22T03:31:11.525Z,17.30
2017-10-22T03:33:39.744Z,16.40
2017-10-22T03:36:07.414Z,16.53
2017-10-22T03:38:34.721Z,15.97
2017-10-22T03:41:02.042Z,15.10
2017-10-22T03:43:29.340Z,14.17
2017-10-22T03:45:56.668Z,15.43
2017-10-22T03:48:23.978Z,14.43
2017-10-22T03:50:51.339Z,15.10
2017-10-22T03:53:18.957Z,12.90
2017-10-22T03:55:46.272Z,14.10
2017-10-22T03:58:13.914Z,13.83
2017-10-22T04:00:41.415Z,11.80
2017-10-22T04:03:08.752Z,12.40
2017-10-22T04:05:36.078Z,12.53
2017-10-22T04:08:03.384Z,12.10
2017-10-22T04:10:30.701Z,11.70
2017-10-22T04:12:58.168Z,11.77
2017-10-22T04:15:25.530Z,12.33
2017-10-22T04:17:52.829Z,11.73
2017-10-22T04:20:20.132Z,10.80
2017-10-22T04:22:47.447Z,10.90
2017-10-22T04:25:14.764Z,11.40
2017-10-22T04:27:43.089Z,11.70
2017-10-22T04:30:10.412Z,11.00
2017-10-22T04:32:38.089Z,10.70
2017-10-22T04:35:05.386Z,10.93
2017-10-22T04:37:32.709Z,11.83
2017-10-22T04:40:00.013Z,11.90
2017-10-22T04:42:27.328Z,11.63
2017-10-22T04:44:54.663Z,11.00
2017-10-22T04:47:21.982Z,11.33
2017-10-22T04:49:49.294Z,11.00
2017-10-22T04:52:16.781Z,10.93
2017-10-22T04:54:44.089Z,11.17
2017-10-22T04:57:11.692Z,11.00
2017-10-22T04:59:39.083Z,10.70
2017-10-22T05:02:06.391Z,11.43
2017-10-22T05:04:33.724Z,10.57
2017-10-22T05:07:01.032Z,10.67
2017-10-22T05:09:28.362Z,10.83
2017-10-22T05:11:55.672Z,10.53
2017-10-22T05:14:22.998Z,9.83
2017-10-22T05:16:50.305Z,11.13
2017-10-22T05:19:17.651Z,10.73
2017-10-22T05:21:45.046Z,10.00
2017-10-22T05:24:12.393Z,11.17
2017-10-22T05:26:39.724Z,10.13
2017-10-22T05:29:07.049Z,9.17
2017-10-22T05:31:34.416Z,8.60
2017-10-22T05:34:02.032Z,9.00
2017-10-22T05:36:29.348Z,10.27
2017-10-22T05:38:56.683Z,8.10
2017-10-22T05:41:23.993Z,8.70
2017-10-22T05:43:51.310Z,9.00
2017-10-22T05:46:19.397Z,8.60
2017-10-22T05:48:46.752Z,8.80
2017-10-22T05:51:14.062Z,7.77
2017-10-22T05:53:41.361Z,7.50
2017-10-22T05:56:08.674Z,7.33
2017-10-22T05:58:35.972Z,7.40
2017-10-22T06:01:03.332Z,7.67
2017-10-22T06:03:30.624Z,7.10
2017-10-22T06:05:58.706Z,7.23
2017-10-22T06:08:26.039Z,7.33
2017-10-22T06:10:53.904Z,6.70
2017-10-22T06:13:21.222Z,7.30
2017-10-22T06:15:48.553Z,6.90
2017-10-22T06:18:15.870Z,7.00
2017-10-22T06:20:43.186Z,6.30
2017-10-22T06:23:10.500Z,6.33
2017-10-22T06:25:37.793Z,6.57
2017-10-22T06:28:05.124Z,8.07
2017-10-22T06:30:32.484Z,5.90
2017-10-22T06:32:59.805Z,7.07
2017-10-22T06:35:27.104Z,6.47
2017-10-22T06:37:55.345Z,5.80
2017-10-22T06:40:22.665Z,5.77
2017-10-22T06:42:50.888Z,5.40
2017-10-22T06:45:18.206Z,5.70
2017-10-22T06:47:45.507Z,5.40
2017-10-22T06:50:12.825Z,5.60
2017-10-22T06:52:40.137Z,5.50
2017-10-22T06:55:07.454Z,5.90
2017-10-22T06:57:34.764Z,6.47
2017-10-22T07:00:02.098Z,5.30
2017-10-22T07:02:29.409Z,5.67
2017-10-22T07:04:56.720Z,5.10
2017-10-22T07:07:24.030Z,5.17
2017-10-22T07:09:51.341Z,5.17
2017-10-22T07:12:18.681Z,4.80
2017-10-22T07:14:45.990Z,4.77
2017-10-22T07:17:13.314Z,4.70
2017-10-22T07:19:40.633Z,5.03
2017-10-22T07:22:07.936Z,4.90
2017-10-22T07:24:35.259Z,5.60
2017-10-22T07:27:02.597Z,4.80
2017-10-22T07:29:29.914Z,4.37
2017-10-22T07:31:57.248Z,4.33
2017-10-22T07:34:24.612Z,4.90
2017-10-22T07:36:51.912Z,4.50
2017-10-22T07:39:19.225Z,4.90
2017-10-22T07:41:46.589Z,5.00
2017-10-22T07:44:13.882Z,4.40
2017-10-22T07:46:41.187Z,4.40
2017-10-22T07:49:08.493Z,4.63
2017-10-22T07:51:35.795Z,4.40
2017-10-22T07:54:03.129Z,4.00
2017-10-22T07:56:30.469Z,4.00
2017-10-22T07:58:57.805Z,3.50
2017-10-22T08:01:25.104Z,4.60
2017-10-22T08:03:52.421Z,3.80
2017-10-22T08:06:19.769Z,4.80
2017-10-22T08:08:47.985Z,4.43
2017-10-22T08:11:16.160Z,3.50
2017-10-22T08:13:43.481Z,3.70
2017-10-22T08:16:10.774Z,3.87
2017-10-22T08:18:38.090Z,3.57
2017-10-22T08:21:05.420Z,3.33
2017-10-22T08:23:32.733Z,3.90
2017-10-22T08:26:00.361Z,4.10
2017-10-22T08:28:27.677Z,3.27
2017-10-22T08:30:55.197Z,3.03
2017-10-22T08:33:22.512Z,3.23
2017-10-22T08:35:49.832Z,3.27
2017-10-22T08:38:17.136Z,4.60
2017-10-22T08:40:44.441Z,3.40
2017-10-22T08:43:11.769Z,3.47
2017-10-22T08:45:40.284Z,3.97
2017-10-22T08:48:07.711Z,3.67
2017-10-22T08:50:35.104Z,4.40
2017-10-22T08:53:02.393Z,3.67
2017-10-22T08:55:29.732Z,3.87
2017-10-22T08:57:57.023Z,3.90
2017-10-22T09:00:24.377Z,4.30
2017-10-22T09:02:51.662Z,3.03
2017-10-22T09:05:19.004Z,3.40
2017-10-22T09:07:46.305Z,3.77
2017-10-22T09:10:13.633Z,3.93
2017-10-22T09:12:40.937Z,3.30
2017-10-22T09:15:08.324Z,3.57
2017-10-22T09:17:35.633Z,3.37
2017-10-22T09:20:02.968Z,3.83
2017-10-22T09:22:30.276Z,3.20
2017-10-22T09:24:57.573Z,3.57
2017-10-22T09:27:24.871Z,3.63
2017-10-22T09:29:52.182Z,3.20
2017-10-22T09:32:19.491Z,3.50
2017-10-22T09:34:46.813Z,3.30
2017-10-22T09:37:14.143Z,3.07
2017-10-22T09:39:41.455Z,3.00
2017-10-22T09:42:08.777Z,3.50
2017-10-22T09:44:36.088Z,3.33
2017-10-22T09:47:03.392Z,3.23
2017-10-22T09:49:30.728Z,3.37
2017-10-22T09:51:58.032Z,2.90
2017-10-22T09:54:25.363Z,3.37
2017-10-22T09:56:52.664Z,3.00
2017-10-22T09:59:19.997Z,3.13
2017-10-22T10:01:47.381Z,3.10
2017-10-22T10:04:14.694Z,3.00
2017-10-22T10:06:42.013Z,3.50
2017-10-22T10:09:09.392Z,3.37
2017-10-22T10:11:36.689Z,2.90
2017-10-22T10:14:04.037Z,2.90
2017-10-22T10:16:31.365Z,2.93
2017-10-22T10:18:58.724Z,3.20
2017-10-22T10:21:26.029Z,2.90
2017-10-22T10:23:53.348Z,2.80
2017-10-22T10:26:20.859Z,2.50
2017-10-22T10:28:48.273Z,2.77
2017-10-22T10:31:15.570Z,3.00
2017-10-22T10:33:42.878Z,3.13
2017-10-22T10:36:10.206Z,2.67
2017-10-22T10:38:37.528Z,2.80
2017-10-22T10:41:04.884Z,2.17
2017-10-22T10:43:32.936Z,2.43
2017-10-22T10:46:00.249Z,2.50
2017-10-22T10:48:27.562Z,2.50
2017-10-22T10:50:54.884Z,3.17
2017-10-22T10:53:22.169Z,2.80
2017-10-22T10:55:49.655Z,2.53
2017-10-22T10:58:16.944Z,2.70
2017-10-22T11:00:44.252Z,2.70
2017-10-22T11:03:11.558Z,2.53
2017-10-22T11:05:38.920Z,2.60
2017-10-22T11:08:06.240Z,2.60
2017-10-22T11:10:33.524Z,2.80
2017-10-22T11:13:01.067Z,2.90
2017-10-22T11:15:28.373Z,2.63
2017-10-22T11:17:55.676Z,2.70
2017-10-22T11:20:22.995Z,2.40
2017-10-22T11:22:50.310Z,2.70
2017-10-22T11:25:17.627Z,2.40
2017-10-22T11:27:44.938Z,2.57
2017-10-22T11:30:12.257Z,2.50
2017-10-22T11:32:39.681Z,2.40
2017-10-22T11:35:07.505Z,2.40
2017-10-22T11:37:34.822Z,2.40
2017-10-22T11:40:02.163Z,2.67
2017-10-22T11:42:29.513Z,2.90
2017-10-22T11:44:57.615Z,2.77
2017-10-22T11:47:24.954Z,2.13
2017-10-22T11:49:52.250Z,2.57
2017-10-22T11:52:19.552Z,2.87
2017-10-22T11:54:46.854Z,2.80
2017-10-22T11:57:14.162Z,2.90
2017-10-22T11:59:41.542Z,2.13
2017-10-22T12:02:08.834Z,3.60
2017-10-22T12:04:36.164Z,3.03
2017-10-22T12:07:03.474Z,2.60
2017-10-22T12:09:31.172Z,2.67
2017-10-22T12:11:58.470Z,2.60
2017-10-22T12:14:25.786Z,2.57
2017-10-22T12:16:53.100Z,2.80
2017-10-22T12:19:20.421Z,2.77
2017-10-22T12:21:47.998Z,2.47
2017-10-22T12:24:15.350Z,2.77
2017-10-22T12:26:42.681Z,2.80
2017-10-22T12:29:09.984Z,2.40
2017-10-22T12:31:37.297Z,2.90
2017-10-22T12:34:04.598Z,2.50
2017-10-22T12:36:31.926Z,2.73
2017-10-22T12:38:59.233Z,2.90
2017-10-22T12:41:26.550Z,2.70
2017-10-22T12:43:54.274Z,2.40
2017-10-22T12:46:21.580Z,2.27
2017-10-22T12:48:48.901Z,2.30
2017-10-22T12:51:16.199Z,2.93
2017-10-22T12:53:43.510Z,2.90
2017-10-22T12:56:10.857Z,3.03
2017-10-22T12:58:38.184Z,2.77
2017-10-22T13:01:05.489Z,2.90
2017-10-22T13:03:32.837Z,2.53
2017-10-22T13:06:00.130Z,2.13
2017-10-22T13:08:27.477Z,2.40
2017-10-22T13:10:54.784Z,1.93
2017-10-22T13:13:22.102Z,2.20
2017-10-22T13:15:49.402Z,2.20
2017-10-22T13:18:16.758Z,2.47
2017-10-22T13:20:44.093Z,2.37
2017-10-22T13:23:11.607Z,2.80
2017-10-22T13:25:38.893Z,2.07
2017-10-22T13:28:06.229Z,2.77
2017-10-22T13:30:33.516Z,2.30
2017-10-22T13:33:00.902Z,2.27
2017-10-22T13:35:28.214Z,2.30
2017-10-22T13:37:55.509Z,2.50
2017-10-22T13:40:22.807Z,2.20
2017-10-22T13:42:50.130Z,2.73
2017-10-22T13:45:17.449Z,3.30
2017-10-22T13:47:44.740Z,2.70
2017-10-22T13:50:12.057Z,2.70
2017-10-22T13:52:40.097Z,2.50
2017-10-22T13:55:07.405Z,2.43
2017-10-22T13:57:34.701Z,2.50
2017-10-22T14:00:02.031Z,2.10
2017-10-22T14:02:29.363Z,2.30
2017-10-22T14:04:56.716Z,2.20
2017-10-22T14:07:24.329Z,2.17
2017-10-22T14:09:51.628Z,2.10
2017-10-22T14:12:18.954Z,3.20
2017-10-22T14:14:46.254Z,2.40
2017-10-22T14:17:13.572Z,2.60
2017-10-22T14:19:40.874Z,2.30
2017-10-22T14:22:08.521Z,3.07
2017-10-22T14:24:35.812Z,3.00
2017-10-22T14:27:03.116Z,3.07
2017-10-22T14:29:30.476Z,3.00
2017-10-22T14:31:57.835Z,2.77
2017-10-22T14:34:26.023Z,2.97
2017-10-22T14:36:53.335Z,3.00
2017-10-22T14:39:20.641Z,3.63
2017-10-22T14:41:47.953Z,3.10
2017-10-22T14:44:15.315Z,2.87
2017-10-22T14:46:42.586Z,3.20
2017-10-22T14:49:09.917Z,3.17
2017-10-22T14:51:37.280Z,3.70
2017-10-22T14:54:04.593Z,3.03
2017-10-22T14:56:31.950Z,3.00
2017-10-22T14:58:59.277Z,2.93
2017-10-22T15:01:26.572Z,3.00
2017-10-22T15:03:53.908Z,10.13
2017-10-22T15:06:21.200Z,3.67
2017-10-22T15:08:48.504Z,3.23
2017-10-22T15:11:15.826Z,3.00
2017-10-22T15:13:43.131Z,2.77
2017-10-22T15:16:10.469Z,3.97
2017-10-22T15:18:37.775Z,3.57
2017-10-22T15:21:05.094Z,2.77
2017-10-22T15:23:32.699Z,2.90
2017-10-22T15:26:00.141Z,3.00
2017-10-22T15:28:27.433Z,3.57
2017-10-22T15:30:54.821Z,3.00
2017-10-22T15:33:22.136Z,3.57
2017-10-22T15:35:49.442Z,3.20
2017-10-22T15:38:16.728Z,2.40
2017-10-22T15:40:44.075Z,4.50
2017-10-22T15:43:11.369Z,2.50
2017-10-22T15:45:38.724Z,2.50
2017-10-22T15:48:06.006Z,2.87
2017-10-22T15:50:33.347Z,3.47
2017-10-22T15:53:00.640Z,3.00
2017-10-22T15:55:27.968Z,2.53
2017-10-22T15:57:55.265Z,2.80
2017-10-22T16:00:22.565Z,2.43
2017-10-22T16:02:49.880Z,3.67
2017-10-22T16:05:17.174Z,3.03
2017-10-22T16:07:44.520Z,3.40
2017-10-22T16:10:11.821Z,3.83
2017-10-22T16:12:39.629Z,2.97
2017-10-22T16:15:06.926Z,3.20
2017-10-22T16:17:34.237Z,3.10
2017-10-22T16:20:01.561Z,3.50
2017-10-22T16:22:29.089Z,3.07
2017-10-22T16:24:56.414Z,3.33
2017-10-22T16:27:23.734Z,2.70
2017-10-22T16:29:51.336Z,2.70
2017-10-22T16:32:18.668Z,2.80
2017-10-22T16:34:45.984Z,2.73
2017-10-22T16:37:13.307Z,3.00
2017-10-22T16:39:40.635Z,3.07
2017-10-22T16:42:07.921Z,2.90
2017-10-22T16:44:35.308Z,2.97
2017-10-22T16:47:02.626Z,3.00
2017-10-22T16:49:29.953Z,2.83
2017-10-22T16:51:57.269Z,2.43
2017-10-22T16:54:24.648Z,3.23
2017-10-22T16:56:51.978Z,2.40
2017-10-22T16:59:19.281Z,4.00
2017-10-22T17:01:46.620Z,3.00
2017-10-22T17:04:13.987Z,3.20
2017-10-22T17:06:41.280Z,3.20
2017-10-22T17:09:09.510Z,2.97
2017-10-22T17:11:36.834Z,3.20
2017-10-22T17:14:04.238Z,2.80
2017-10-22T17:16:31.530Z,3.00
2017-10-22T17:18:58.916Z,2.80
2017-10-22T17:21:26.209Z,3.30
2017-10-22T17:23:53.553Z,3.20
2017-10-22T17:26:20.836Z,2.80
2017-10-22T17:28:48.137Z,3.43
2017-10-22T17:31:15.446Z,2.80
2017-10-22T17:33:42.745Z,2.70
2017-10-22T17:36:10.053Z,3.00
2017-10-22T17:38:37.382Z,2.87
2017-10-22T17:41:04.702Z,3.27
2017-10-22T17:43:32.017Z,3.13
2017-10-22T17:45:59.398Z,3.23
2017-10-22T17:48:26.719Z,2.60
2017-10-22T17:50:54.037Z,3.00
2017-10-22T17:53:21.473Z,3.67
2017-10-22T17:55:49.992Z,3.13
2017-10-22T17:58:17.285Z,4.57
2017-10-22T18:00:44.592Z,3.60
2017-10-22T18:03:11.903Z,3.30
2017-10-22T18:05:39.210Z,3.13
2017-10-22T18:08:06.532Z,3.63
2017-10-22T18:10:33.845Z,3.80
2017-10-22T18:13:01.468Z,3.10
2017-10-22T18:15:28.778Z,3.50
2017-10-22T18:17:56.095Z,3.43
2017-10-22T18:20:23.390Z,3.20
2017-10-22T18:22:50.714Z,3.40
2017-10-22T18:25:18.014Z,3.53
2017-10-22T18:27:45.426Z,3.40
2017-10-22T18:30:12.756Z,3.20
2017-10-22T18:32:40.071Z,3.23
2017-10-22T18:35:07.369Z,3.40
2017-10-22T18:37:34.700Z,3.60
2017-10-22T18:40:02.039Z,3.50
2017-10-22T18:42:29.355Z,3.37
2017-10-22T18:44:57.013Z,3.50
2017-10-22T18:47:24.482Z,3.83
2017-10-22T18:49:51.828Z,3.10
2017-10-22T18:52:19.509Z,4.50
2017-10-22T18:54:46.834Z,3.40
2017-10-22T18:57:14.134Z,3.27
2017-10-22T18:59:41.442Z,4.67
2017-10-22T19:02:08.765Z,3.70
2017-10-22T19:04:36.073Z,3.40
2017-10-22T19:07:03.408Z,4.07
2017-10-22T19:09:30.899Z,3.43
2017-10-22T19:11:58.847Z,3.60
2017-10-22T19:14:26.213Z,3.10
2017-10-22T19:16:55.940Z,4.03
2017-10-22T19:19:23.254Z,3.50
2017-10-22T19:21:50.557Z,3.90
2017-10-22T19:24:17.880Z,3.60
2017-10-22T19:26:45.173Z,3.40
2017-10-22T19:29:12.513Z,4.13
2017-10-22T19:31:39.803Z,3.70
2017-10-22T19:34:07.128Z,3.57
2017-10-22T19:36:34.511Z,3.00
2017-10-22T19:39:01.815Z,3.87
2017-10-22T19:41:30.191Z,5.20
2017-10-22T19:43:57.498Z,4.80
2017-10-22T19:46:24.805Z,5.80
2017-10-22T19:48:52.099Z,3.10
2017-10-22T19:51:19.444Z,3.80
2017-10-22T19:53:46.738Z,3.30
2017-10-22T19:56:14.089Z,2.90
2017-10-22T19:58:42.340Z,2.90
2017-10-22T20:01:09.678Z,3.33
2017-10-22T20:03:36.987Z,3.17
2017-10-22T20:06:04.275Z,3.40
2017-10-22T20:08:31.621Z,3.33
2017-10-22T20:10:58.895Z,3.00
2017-10-22T20:13:26.220Z,2.90
2017-10-22T20:15:54.094Z,3.10
2017-10-22T20:18:21.430Z,3.50
2017-10-22T20:20:48.731Z,3.63
2017-10-22T20:23:16.077Z,3.10
2017-10-22T20:25:43.385Z,3.10
2017-10-22T20:28:10.710Z,3.37
2017-10-22T20:30:37.988Z,3.03
2017-10-22T20:33:06.373Z,3.57
2017-10-22T20:35:33.661Z,4.27
2017-10-22T20:38:01.005Z,3.67
2017-10-22T20:40:28.307Z,3.77
2017-10-22T20:42:55.647Z,3.37
2017-10-22T20:45:22.946Z,3.73
2017-10-22T20:47:50.284Z,3.47
2017-10-22T20:50:17.581Z,3.30
2017-10-22T20:52:44.893Z,3.33
2017-10-22T20:55:12.197Z,3.50
2017-10-22T20:57:39.510Z,4.30
2017-10-22T21:00:06.817Z,3.30
2017-10-22T21:02:34.109Z,3.20
2017-10-22T21:05:01.458Z,3.57
2017-10-22T21:07:28.758Z,3.50
2017-10-22T21:09:56.099Z,3.20
2017-10-22T21:12:23.402Z,3.53
2017-10-22T21:14:50.741Z,3.20
2017-10-22T21:17:18.061Z,3.57
2017-10-22T21:19:45.361Z,3.63
2017-10-22T21:22:12.694Z,3.60
2017-10-22T21:24:39.998Z,3.77
2017-10-22T21:27:07.360Z,4.00
2017-10-22T21:29:34.632Z,3.90
2017-10-22T21:32:01.954Z,3.70
2017-10-22T21:34:29.247Z,3.90
2017-10-22T21:36:56.571Z,4.20
2017-10-22T21:39:24.200Z,3.83
2017-10-22T21:41:51.500Z,3.80
2017-10-22T21:44:19.612Z,4.00
2017-10-22T21:46:46.957Z,4.27
2017-10-22T21:49:14.310Z,4.20
2017-10-22T21:51:41.650Z,3.50
2017-10-22T21:54:08.962Z,3.43
2017-10-22T21:56:36.346Z,3.87
2017-10-22T21:59:03.664Z,3.80
2017-10-22T22:01:31.901Z,4.00
2017-10-22T22:03:59.217Z,4.10
2017-10-22T22:06:26.514Z,4.00
2017-10-22T22:08:53.875Z,3.70
2017-10-22T22:11:21.173Z,3.50
2017-10-22T22:13:48.514Z,4.13
2017-10-22T22:16:16.802Z,3.80
2017-10-22T22:18:44.127Z,5.20
2017-10-22T22:21:11.464Z,4.33
2017-10-22T22:23:38.767Z,4.00
2017-10-22T22:26:06.078Z,4.40
2017-10-22T22:28:33.382Z,4.93
2017-10-22T22:31:00.702Z,4.50
2017-10-22T22:33:28.025Z,5.10
2017-10-22T22:35:55.340Z,5.10
2017-10-22T22:38:22.641Z,5.63
2017-10-22T22:40:49.989Z,4.87
2017-10-22T22:43:17.288Z,5.17
2017-10-22T22:45:44.649Z,6.10
2017-10-22T22:48:11.992Z,6.27
2017-10-22T22:50:39.318Z,5.30
2017-10-22T22:53:06.643Z,5.30
2017-10-22T22:55:33.952Z,5.93
2017-10-22T22:58:01.260Z,5.37
2017-10-22T23:00:28.588Z,5.40
2017-10-22T23:02:55.896Z,5.27
2017-10-22T23:05:23.209Z,7.10
2017-10-22T23:07:50.543Z,5.83
2017-10-22T23:10:17.838Z,5.77
2017-10-22T23:12:45.175Z,5.33
2017-10-22T23:15:12.525Z,5.63
2017-10-22T23:17:39.827Z,5.53
2017-10-22T23:20:07.135Z,5.77
2017-10-22T23:22:34.477Z,5.43
2017-10-22T23:25:01.776Z,5.00
2017-10-22T23:27:29.098Z,5.23
2017-10-22T23:29:56.397Z,5.07
2017-10-22T23:32:23.722Z,5.20
2017-10-22T23:34:51.013Z,6.00
2017-10-22T23:37:18.357Z,4.70
2017-10-22T23:39:45.653Z,5.20
2017-10-22T23:42:13.720Z,5.20
2017-10-22T23:44:41.019Z,5.00
2017-10-22T23:47:08.383Z,5.20
2017-10-22T23:49:35.703Z,4.67
2017-10-22T23:52:03.001Z,4.70
2017-10-22T23:54:30.314Z,5.23
2017-10-22T23:56:57.603Z,4.87
2017-10-22T23:59:25.370Z,5.67
